Time;durP1;ratioP1;P1;durP2;ratioP2;P2;SDS_P1;SDS_P2;PMS_P1;PMS_P2;Temp;Humidity;BMP_temperature;BMP_pressure;BME280_temperature;BME280_humidity;BME280_pressure;Samples;Min_cycle;Max_cycle;Signal;HPM_P1;HPM_P2
2021/08/13 00:01:48;;;;;;;7.50;6.30;;;21.60;90.50;;;;;;5020291;28;20034;-91
2021/08/13 00:04:14;;;;;;;5.30;4.20;;;21.60;90.60;;;;;;5035851;28;20022;-91
2021/08/13 00:06:41;;;;;;;5.93;4.43;;;21.50;90.60;;;;;;5018399;28;20038;-92
2021/08/13 00:09:10;;;;;;;6.20;4.88;;;21.50;90.70;;;;;;4999817;28;20025;-91
2021/08/13 00:11:37;;;;;;;7.13;5.65;;;21.50;90.70;;;;;;5014441;28;20038;-91
2021/08/13 00:14:05;;;;;;;8.07;6.10;;;21.40;90.80;;;;;;5030088;28;20042;-92
2021/08/13 00:16:31;;;;;;;7.15;5.65;;;21.40;90.90;;;;;;5013853;28;20014;-92
2021/08/13 00:18:56;;;;;;;7.25;5.22;;;21.30;90.90;;;;;;5013818;28;20105;-91
2021/08/13 00:21:22;;;;;;;7.45;5.95;;;21.30;91.00;;;;;;5014161;28;20177;-92
2021/08/13 00:23:48;;;;;;;8.35;6.00;;;21.30;90.90;;;;;;4997003;28;20096;-91
2021/08/13 00:26:13;;;;;;;9.77;6.20;;;21.30;90.90;;;;;;5016665;28;20121;-91
2021/08/13 00:28:39;;;;;;;7.95;6.28;;;21.20;91.00;;;;;;5012327;28;20022;-92
2021/08/13 00:31:05;;;;;;;9.68;6.93;;;21.20;91.00;;;;;;5013030;28;20482;-93
2021/08/13 00:33:31;;;;;;;8.82;6.80;;;21.20;91.10;;;;;;4996575;28;20026;-91
2021/08/13 00:35:57;;;;;;;9.18;6.55;;;21.10;91.10;;;;;;5012015;28;20120;-93
2021/08/13 00:38:22;;;;;;;9.90;6.50;;;21.10;91.10;;;;;;5012813;28;20529;-92
2021/08/13 00:40:48;;;;;;;7.97;6.13;;;21.10;91.10;;;;;;4996774;28;20045;-92
2021/08/13 00:43:14;;;;;;;7.93;6.18;;;21.10;91.10;;;;;;4996927;28;20029;-92
2021/08/13 00:45:40;;;;;;;9.98;6.32;;;21.10;91.10;;;;;;5012854;28;20029;-92
2021/08/13 00:48:06;;;;;;;9.88;6.97;;;21.00;91.10;;;;;;5011668;28;20478;-91
2021/08/13 00:50:32;;;;;;;8.90;7.55;;;21.00;91.10;;;;;;5012202;28;20429;-92
2021/08/13 00:53:01;;;;;;;9.90;6.63;;;20.90;91.20;;;;;;5012225;28;20053;-92
2021/08/13 00:55:27;;;;;;;8.55;6.78;;;20.90;91.30;;;;;;5028749;28;20026;-93
2021/08/13 00:57:54;;;;;;;7.95;6.38;;;20.90;91.30;;;;;;4996086;28;20030;-93
2021/08/13 01:00:20;;;;;;;7.60;6.35;;;20.90;91.40;;;;;;4996319;28;20039;-92
2021/08/13 01:02:45;;;;;;;9.63;6.95;;;20.80;91.30;;;;;;5011862;28;20038;-92
2021/08/13 01:05:12;;;;;;;8.93;7.63;;;20.80;91.40;;;;;;5011796;28;20501;-92
2021/08/13 01:07:38;;;;;;;11.35;7.85;;;20.80;91.40;;;;;;4992890;28;20037;-93
2021/08/13 01:10:05;;;;;;;9.25;8.30;;;20.80;91.40;;;;;;5003507;28;20030;-93
2021/08/13 01:12:51;;;;;;;8.52;7.22;;;20.80;91.40;;;;;;5012639;28;20060;-93
2021/08/13 01:15:19;;;;;;;11.50;8.27;;;20.70;91.50;;;;;;5013519;28;20026;-93
2021/08/13 01:17:54;;;;;;;9.77;7.47;;;20.70;91.60;;;;;;5008976;28;20122;-91
2021/08/13 01:20:34;;;;;;;9.45;7.65;;;20.70;91.80;;;;;;5006402;28;20054;-93
2021/08/13 01:23:21;;;;;;;10.32;7.82;;;20.70;91.80;;;;;;5001701;28;20038;-93
2021/08/13 01:25:52;;;;;;;10.63;8.05;;;20.70;91.90;;;;;;5025232;28;20077;-91
2021/08/13 01:28:47;;;;;;;10.52;7.65;;;20.70;91.90;;;;;;5050555;28;20073;-92
2021/08/13 01:31:19;;;;;;;9.55;8.32;;;20.70;92.00;;;;;;5018706;28;20030;-91
2021/08/13 01:33:47;;;;;;;9.15;8.23;;;20.60;91.90;;;;;;5029808;28;20482;-93
2021/08/13 01:36:15;;;;;;;10.68;8.20;;;20.60;92.00;;;;;;5013795;28;20026;-92
2021/08/13 01:38:42;;;;;;;9.38;8.10;;;20.60;92.00;;;;;;5009176;28;20074;-91
2021/08/13 01:41:11;;;;;;;11.50;8.10;;;20.60;92.10;;;;;;5012349;28;20073;-93
2021/08/13 01:43:40;;;;;;;10.38;8.40;;;20.60;92.10;;;;;;5012835;28;20022;-92
2021/08/13 01:46:06;;;;;;;11.20;7.97;;;20.60;92.20;;;;;;4993962;28;20022;-92
2021/08/13 01:48:34;;;;;;;9.18;7.93;;;20.60;92.20;;;;;;4999410;28;20525;-92
2021/08/13 01:51:00;;;;;;;9.00;7.75;;;20.60;92.30;;;;;;4999668;28;20030;-92
2021/08/13 01:53:27;;;;;;;11.77;8.60;;;20.50;92.30;;;;;;5015327;28;20020;-93
2021/08/13 01:55:56;;;;;;;9.55;7.80;;;20.50;92.30;;;;;;4995801;28;20026;-92
2021/08/13 01:58:23;;;;;;;11.20;8.13;;;20.50;92.40;;;;;;5015903;28;20022;-92
2021/08/13 02:00:51;;;;;;;9.38;8.38;;;20.50;92.50;;;;;;5016392;28;20029;-91
2021/08/13 02:03:17;;;;;;;13.25;7.90;;;20.50;92.50;;;;;;5005262;28;20022;-91
2021/08/13 02:05:45;;;;;;;9.30;7.88;;;20.50;92.40;;;;;;5001879;28;20037;-92
2021/08/13 02:08:12;;;;;;;11.13;8.52;;;20.50;92.50;;;;;;5009096;28;20059;-91
2021/08/13 02:10:40;;;;;;;9.32;8.07;;;20.50;92.50;;;;;;5001173;28;20028;-89
2021/08/13 02:13:06;;;;;;;9.43;7.50;;;20.50;92.60;;;;;;5033157;28;20017;-90
2021/08/13 02:15:35;;;;;;;9.15;7.93;;;20.40;92.50;;;;;;5016407;28;20033;-90
2021/08/13 02:18:13;;;;;;;10.30;8.10;;;20.40;92.50;;;;;;5016087;28;20056;-91
2021/08/13 02:20:42;;;;;;;10.15;8.07;;;20.40;92.60;;;;;;5009169;28;20462;-90
2021/08/13 02:23:08;;;;;;;9.13;7.40;;;20.40;92.80;;;;;;5007341;28;20073;-91
2021/08/13 02:25:34;;;;;;;10.88;7.00;;;20.40;92.50;;;;;;5015666;28;20036;-90
2021/08/13 02:28:00;;;;;;;9.75;7.50;;;20.40;92.60;;;;;;5032244;28;20112;-91
2021/08/13 02:30:27;;;;;;;10.85;8.02;;;20.30;92.50;;;;;;5015346;28;20490;-89
2021/08/13 02:32:53;;;;;;;10.10;7.95;;;20.30;92.50;;;;;;5016772;28;20033;-92
2021/08/13 02:35:19;;;;;;;8.57;7.30;;;20.30;92.60;;;;;;5015336;28;20030;-91
2021/08/13 02:38:20;;;;;;;8.35;6.82;;;20.30;92.60;;;;;;5015455;28;20354;-91
2021/08/13 02:40:54;;;;;;;9.07;6.72;;;20.30;92.70;;;;;;4994856;28;20061;-92
2021/08/13 02:43:29;;;;;;;9.02;7.38;;;20.30;92.60;;;;;;5015514;28;20026;-93
2021/08/13 02:45:59;;;;;;;9.38;6.60;;;20.30;92.70;;;;;;5015379;28;20037;-90
2021/08/13 02:48:26;;;;;;;8.25;6.38;;;20.20;92.70;;;;;;5031905;28;20026;-92
2021/08/13 02:50:54;;;;;;;8.77;7.47;;;20.20;92.70;;;;;;5012856;28;20030;-93
2021/08/13 02:53:21;;;;;;;12.10;7.75;;;20.20;92.80;;;;;;5013705;28;20036;-92
2021/08/13 02:55:50;;;;;;;8.63;7.28;;;20.20;92.80;;;;;;5015004;28;20130;-92
2021/08/13 02:58:18;;;;;;;9.25;7.80;;;20.10;92.80;;;;;;5014045;28;20038;-91
2021/08/13 03:00:46;;;;;;;10.95;8.20;;;20.10;92.80;;;;;;5015507;28;20030;-91
2021/08/13 03:03:13;;;;;;;9.95;8.13;;;20.10;92.80;;;;;;5014711;28;20375;-89
2021/08/13 03:05:48;;;;;;;11.48;8.90;;;20.10;92.80;;;;;;5014839;28;20497;-91
2021/08/13 03:08:14;;;;;;;11.05;9.27;;;20.10;92.80;;;;;;5014519;28;20022;-91
2021/08/13 03:10:40;;;;;;;10.60;8.95;;;20.10;92.80;;;;;;5015466;28;20033;-91
2021/08/13 03:13:06;;;;;;;10.90;9.40;;;20.00;92.80;;;;;;4998486;28;20038;-91
2021/08/13 03:15:33;;;;;;;10.40;9.30;;;20.00;92.80;;;;;;5014024;28;20036;-92
2021/08/13 03:18:00;;;;;;;10.25;8.65;;;20.00;92.90;;;;;;5021947;28;20044;-92
2021/08/13 03:20:26;;;;;;;11.32;8.85;;;20.00;92.90;;;;;;4998155;28;20128;-92
2021/08/13 03:22:52;;;;;;;9.90;8.75;;;20.00;92.90;;;;;;5015538;28;20089;-92
2021/08/13 03:25:18;;;;;;;10.85;8.63;;;20.00;92.90;;;;;;5013973;28;20025;-91
2021/08/13 03:27:45;;;;;;;9.68;8.32;;;19.90;92.90;;;;;;5014505;28;20026;-91
2021/08/13 03:30:12;;;;;;;11.00;8.98;;;19.90;92.90;;;;;;5015026;28;20029;-90
2021/08/13 03:32:41;;;;;;;10.90;7.97;;;19.90;92.90;;;;;;5014518;28;20077;-91
2021/08/13 03:35:09;;;;;;;11.45;8.98;;;19.90;92.90;;;;;;5014464;28;20037;-92
2021/08/13 03:37:35;;;;;;;11.75;8.77;;;19.90;92.90;;;;;;5014491;28;20022;-91
2021/08/13 03:40:03;;;;;;;12.35;8.52;;;19.90;93.20;;;;;;4989730;28;20061;-92
2021/08/13 03:42:28;;;;;;;11.57;9.70;;;19.80;93.00;;;;;;5014424;28;20030;-93
2021/08/13 03:44:54;;;;;;;9.82;8.60;;;19.80;93.00;;;;;;5015199;28;20033;-92
2021/08/13 03:47:20;;;;;;;9.77;8.20;;;19.80;93.10;;;;;;5014088;28;20030;-91
2021/08/13 03:49:46;;;;;;;10.30;8.43;;;19.80;93.10;;;;;;5030920;28;20150;-91
2021/08/13 03:52:12;;;;;;;10.20;8.80;;;19.70;93.40;;;;;;5014251;28;20048;-92
2021/08/13 03:54:37;;;;;;;10.57;8.73;;;19.70;93.20;;;;;;5012947;28;20034;-92
2021/08/13 03:57:03;;;;;;;9.93;8.43;;;19.70;93.30;;;;;;4980011;28;20026;-91
2021/08/13 03:59:29;;;;;;;12.00;9.00;;;19.70;93.30;;;;;;5000528;28;20029;-90
2021/08/13 04:01:54;;;;;;;10.07;8.38;;;19.70;93.40;;;;;;5013442;28;20493;-91
2021/08/13 04:04:20;;;;;;;10.15;8.18;;;19.70;93.40;;;;;;5013510;28;20126;-91
2021/08/13 04:06:48;;;;;;;10.48;8.45;;;19.70;93.50;;;;;;5013689;28;20034;-91
2021/08/13 04:09:14;;;;;;;11.88;8.25;;;19.70;93.50;;;;;;5013668;28;20026;-91
2021/08/13 04:11:39;;;;;;;10.98;8.43;;;19.70;93.50;;;;;;5013797;28;20030;-91
2021/08/13 04:14:06;;;;;;;10.95;8.82;;;19.70;93.50;;;;;;4995874;28;20022;-91
2021/08/13 04:16:31;;;;;;;10.85;9.38;;;19.70;93.50;;;;;;5000672;28;20041;-92
2021/08/13 04:18:59;;;;;;;12.07;9.93;;;19.60;93.50;;;;;;5013509;28;20386;-92
2021/08/13 04:21:25;;;;;;;11.38;9.27;;;19.60;93.60;;;;;;5011882;28;20030;-91
2021/08/13 04:23:50;;;;;;;11.02;9.45;;;19.60;93.60;;;;;;5013533;28;20053;-90
2021/08/13 04:26:19;;;;;;;12.32;9.88;;;19.60;93.60;;;;;;4993887;28;20026;-92
2021/08/13 04:28:45;;;;;;;10.40;8.93;;;19.60;93.60;;;;;;5010689;28;20472;-91
2021/08/13 04:31:10;;;;;;;12.65;9.27;;;19.60;93.60;;;;;;5029939;28;20073;-91
2021/08/13 04:33:36;;;;;;;10.65;9.15;;;19.50;93.70;;;;;;5013873;28;20112;-92
2021/08/13 04:36:02;;;;;;;9.88;8.88;;;19.50;93.70;;;;;;5023100;28;20022;-92
2021/08/13 04:38:27;;;;;;;12.45;9.48;;;19.50;93.70;;;;;;5013899;28;20549;-93
2021/08/13 04:40:53;;;;;;;10.73;8.90;;;19.50;93.70;;;;;;5012665;28;20030;-93
2021/08/13 04:43:19;;;;;;;11.90;10.02;;;19.50;93.70;;;;;;5014355;28;20058;-92
2021/08/13 04:45:45;;;;;;;11.02;9.05;;;19.50;93.80;;;;;;5029761;28;20053;-92
2021/08/13 04:48:10;;;;;;;10.02;8.82;;;19.50;93.90;;;;;;5032023;28;20022;-92
2021/08/13 04:50:38;;;;;;;12.55;10.48;;;19.50;93.90;;;;;;5048711;28;20045;-92
2021/08/13 04:53:04;;;;;;;11.48;9.50;;;19.50;93.90;;;;;;5020288;28;20088;-92
2021/08/13 04:55:30;;;;;;;9.90;8.77;;;19.50;94.00;;;;;;5012577;28;20041;-92
2021/08/13 04:57:55;;;;;;;13.10;9.60;;;19.50;94.00;;;;;;5012173;28;20022;-92
2021/08/13 05:00:23;;;;;;;11.30;9.43;;;19.50;94.10;;;;;;4996446;28;20030;-92
2021/08/13 05:02:48;;;;;;;11.98;9.18;;;19.50;94.10;;;;;;5013246;28;20021;-92
2021/08/13 05:05:14;;;;;;;11.13;9.77;;;19.50;94.00;;;;;;5013193;28;20129;-91
2021/08/13 05:07:40;;;;;;;13.55;10.00;;;19.40;94.00;;;;;;5013369;28;20109;-92
2021/08/13 05:10:11;;;;;;;11.80;10.02;;;19.40;94.10;;;;;;5013470;28;20042;-90
2021/08/13 05:12:37;;;;;;;9.55;8.45;;;19.40;94.20;;;;;;5013998;28;20029;-90
2021/08/13 05:15:04;;;;;;;10.90;9.63;;;19.40;94.20;;;;;;5023586;28;20066;-91
2021/08/13 05:17:30;;;;;;;13.38;9.77;;;19.40;94.30;;;;;;5005458;28;20033;-91
2021/08/13 05:19:55;;;;;;;10.35;9.27;;;19.40;94.30;;;;;;4996803;28;20022;-91
2021/08/13 05:22:21;;;;;;;13.25;9.18;;;19.40;94.40;;;;;;4999477;28;20037;-91
2021/08/13 05:24:47;;;;;;;10.98;9.73;;;19.40;94.40;;;;;;5016812;28;20041;-91
2021/08/13 05:27:13;;;;;;;11.60;9.57;;;19.30;94.50;;;;;;5018078;28;20033;-91
2021/08/13 05:29:38;;;;;;;11.68;9.93;;;19.30;94.50;;;;;;5017236;28;20119;-91
2021/08/13 05:32:04;;;;;;;13.65;10.48;;;19.30;94.50;;;;;;5000223;28;20034;-92
2021/08/13 05:34:30;;;;;;;12.90;10.07;;;19.30;94.50;;;;;;5000736;28;20026;-90
2021/08/13 05:36:58;;;;;;;12.02;10.50;;;19.40;94.60;;;;;;5017052;28;20466;-91
2021/08/13 05:39:23;;;;;;;12.68;10.98;;;19.30;94.60;;;;;;5016731;28;20124;-91
2021/08/13 05:41:49;;;;;;;13.07;10.95;;;19.30;94.60;;;;;;5000256;28;20169;-92
2021/08/13 05:44:15;;;;;;;12.80;10.90;;;19.40;94.70;;;;;;5016848;28;20072;-92
2021/08/13 05:46:43;;;;;;;12.20;10.27;;;19.30;94.70;;;;;;5029777;28;20029;-92
2021/08/13 05:49:09;;;;;;;12.18;10.32;;;19.40;94.70;;;;;;4984391;28;20026;-93
2021/08/13 05:51:35;;;;;;;14.30;11.35;;;19.40;94.70;;;;;;5012041;28;20120;-92
2021/08/13 05:54:00;;;;;;;14.70;11.10;;;19.40;94.70;;;;;;5028017;28;20032;-92
2021/08/13 05:56:26;;;;;;;13.73;9.95;;;19.40;94.60;;;;;;5016296;28;20029;-91
2021/08/13 05:58:53;;;;;;;14.55;10.77;;;19.40;94.90;;;;;;5016894;28;20429;-90
2021/08/13 06:01:19;;;;;;;11.95;10.25;;;19.40;94.50;;;;;;5008336;28;20506;-92
2021/08/13 06:03:44;;;;;;;12.63;10.45;;;19.40;94.50;;;;;;5012646;28;20061;-89
2021/08/13 06:06:10;;;;;;;11.95;9.63;;;19.40;94.50;;;;;;4997184;28;20418;-92
2021/08/13 06:08:36;;;;;;;12.80;10.38;;;19.50;94.50;;;;;;5003647;28;20026;-91
2021/08/13 06:11:02;;;;;;;13.70;10.38;;;19.50;94.40;;;;;;5044314;28;20026;-91
2021/08/13 06:13:28;;;;;;;11.90;9.63;;;19.40;94.30;;;;;;5014684;28;20030;-91
2021/08/13 06:15:54;;;;;;;11.27;9.15;;;19.50;94.40;;;;;;5014945;28;20022;-92
2021/08/13 06:18:20;;;;;;;12.98;9.85;;;19.50;94.40;;;;;;5015378;28;20014;-92
2021/08/13 06:20:46;;;;;;;12.63;9.63;;;19.50;94.40;;;;;;5041880;28;20130;-93
2021/08/13 06:23:11;;;;;;;12.82;9.60;;;19.50;94.30;;;;;;5025280;28;20484;-91
2021/08/13 06:25:37;;;;;;;14.32;10.50;;;19.50;94.30;;;;;;5025266;28;20014;-91
2021/08/13 06:28:03;;;;;;;12.90;10.30;;;19.50;94.30;;;;;;5030478;28;20057;-90
2021/08/13 06:30:31;;;;;;;12.60;10.20;;;19.50;94.30;;;;;;5031714;28;20037;-93
2021/08/13 06:32:59;;;;;;;11.75;9.52;;;19.50;94.40;;;;;;5028767;28;20026;-92
2021/08/13 06:35:25;;;;;;;11.68;9.05;;;19.50;94.30;;;;;;5023448;28;20023;-92
2021/08/13 06:37:56;;;;;;;12.00;9.73;;;19.50;94.30;;;;;;5003197;28;20022;-89
2021/08/13 06:40:23;;;;;;;14.45;10.02;;;19.60;94.30;;;;;;5033924;28;20054;-91
2021/08/13 06:42:52;;;;;;;14.82;10.68;;;19.60;94.30;;;;;;5031201;28;20090;-93
2021/08/13 06:45:23;;;;;;;12.32;9.68;;;19.60;94.10;;;;;;5029211;28;20474;-93
2021/08/13 06:47:49;;;;;;;;;;;19.60;94.10;;;;;;5028434;28;20029;-92
2021/08/13 06:50:15;;;;;;;11.40;8.95;;;19.60;94.20;;;;;;5029461;28;19906;-93
2021/08/13 06:52:43;;;;;;;11.98;10.05;;;19.60;94.20;;;;;;5030375;28;20033;-92
2021/08/13 06:55:09;;;;;;;12.30;9.63;;;19.60;94.20;;;;;;5041900;28;20095;-89
2021/08/13 06:57:35;;;;;;;14.00;9.35;;;19.60;94.20;;;;;;5019753;28;20029;-89
2021/08/13 07:00:02;;;;;;;12.52;10.23;;;19.70;94.20;;;;;;5035819;28;20509;-89
2021/08/13 07:02:28;;;;;;;14.50;9.27;;;19.70;94.20;;;;;;5015681;28;20116;-89
2021/08/13 07:04:54;;;;;;;14.88;11.45;;;19.70;94.20;;;;;;4999567;28;20493;-90
2021/08/13 07:07:19;;;;;;;15.40;11.80;;;19.70;94.20;;;;;;5016386;28;20022;-90
2021/08/13 07:09:47;;;;;;;15.15;11.43;;;19.70;94.20;;;;;;4997835;28;20029;-87
2021/08/13 07:12:13;;;;;;;16.90;11.77;;;19.70;94.20;;;;;;5000065;28;20038;-89
2021/08/13 07:14:39;;;;;;;17.48;13.32;;;19.80;94.30;;;;;;5015028;28;20041;-89
2021/08/13 07:17:05;;;;;;;14.02;11.65;;;19.80;94.30;;;;;;5014044;28;20030;-89
2021/08/13 07:19:30;;;;;;;13.43;10.38;;;19.80;94.30;;;;;;5014042;28;20034;-89
2021/08/13 07:21:56;;;;;;;14.73;11.50;;;19.90;94.30;;;;;;5013394;28;20104;-90
2021/08/13 07:24:23;;;;;;;14.52;11.38;;;19.90;94.30;;;;;;5014193;28;20471;-90
2021/08/13 07:26:49;;;;;;;13.73;10.45;;;20.00;94.30;;;;;;4997542;28;20033;-90
2021/08/13 07:29:15;;;;;;;13.02;10.15;;;20.00;94.20;;;;;;5017478;28;20029;-89
2021/08/13 07:31:41;;;;;;;15.30;10.77;;;20.00;94.20;;;;;;5021901;28;20116;-89
2021/08/13 07:34:07;;;;;;;15.63;11.40;;;20.10;94.20;;;;;;5021173;28;20064;-90
2021/08/13 07:36:32;;;;;;;14.88;11.55;;;20.10;94.10;;;;;;5016766;28;20118;-90
2021/08/13 07:39:01;;;;;;;15.23;11.65;;;20.10;93.90;;;;;;5018575;28;20391;-89
2021/08/13 07:41:27;;;;;;;19.17;12.48;;;20.10;93.90;;;;;;5017024;28;20057;-89
2021/08/13 07:43:56;;;;;;;16.48;11.65;;;20.10;93.80;;;;;;5013369;28;20088;-89
2021/08/13 07:46:24;;;;;;;11.95;9.82;;;20.10;93.80;;;;;;5012955;28;20056;-88
2021/08/13 07:48:50;;;;;;;15.07;11.30;;;20.20;93.90;;;;;;5012950;28;20034;-89
2021/08/13 07:51:16;;;;;;;13.52;10.32;;;20.20;93.90;;;;;;4997212;28;20091;-89
2021/08/13 07:53:41;;;;;;;13.98;10.45;;;20.20;93.90;;;;;;5013302;28;20025;-90
2021/08/13 07:56:12;;;;;;;12.93;10.05;;;20.30;94.00;;;;;;5013274;28;20493;-91
2021/08/13 07:58:38;;;;;;;12.90;9.60;;;20.30;93.90;;;;;;5011931;28;20028;-89
2021/08/13 08:01:04;;;;;;;13.25;9.65;;;20.30;93.70;;;;;;5028999;28;20117;-90
2021/08/13 08:03:30;;;;;;;15.30;10.07;;;20.30;93.70;;;;;;5008199;28;20026;-89
2021/08/13 08:05:55;;;;;;;10.40;8.18;;;20.30;93.70;;;;;;4997000;28;20030;-89
2021/08/13 08:08:21;;;;;;;12.80;9.32;;;20.40;93.70;;;;;;5013734;28;20026;-88
2021/08/13 08:10:47;;;;;;;12.93;9.43;;;20.40;93.70;;;;;;5014224;28;20422;-90
2021/08/13 08:13:17;;;;;;;11.00;8.20;;;20.40;93.70;;;;;;4997632;28;20065;-89
2021/08/13 08:15:43;;;;;;;12.48;8.73;;;20.50;93.80;;;;;;5010111;28;20467;-89
2021/08/13 08:18:19;;;;;;;10.57;8.38;;;20.60;93.80;;;;;;5010762;28;20030;-88
2021/08/13 08:20:45;;;;;;;13.65;9.60;;;20.60;93.80;;;;;;5004042;28;20054;-89
2021/08/13 08:23:11;;;;;;;11.98;8.40;;;20.70;93.60;;;;;;5004383;28;20052;-89
2021/08/13 08:25:37;;;;;;;12.98;8.23;;;20.80;93.50;;;;;;4976596;28;20042;-89
2021/08/13 08:28:03;;;;;;;10.90;8.90;;;20.80;93.30;;;;;;5005627;28;20031;-89
2021/08/13 08:30:34;;;;;;;11.82;8.52;;;20.90;93.10;;;;;;4988831;28;20027;-90
2021/08/13 08:33:02;;;;;;;;;;;20.90;93.00;;;;;;5008022;28;20030;-91
2021/08/13 08:35:28;;;;;;;11.52;7.20;;;21.00;92.80;;;;;;5004208;28;19941;-89
2021/08/13 08:38:03;;;;;;;9.60;5.95;;;21.00;92.90;;;;;;5021978;28;20451;-89
2021/08/13 08:40:38;;;;;;;9.75;6.35;;;21.10;93.00;;;;;;5009860;28;20070;-87
2021/08/13 08:43:09;;;;;;;11.50;7.57;;;21.20;93.00;;;;;;5005938;28;20025;-88
2021/08/13 08:45:41;;;;;;;12.27;8.25;;;21.20;92.80;;;;;;5009321;28;20037;-88
2021/08/13 08:48:16;;;;;;;12.30;6.43;;;21.30;92.50;;;;;;5005662;28;20029;-88
2021/08/13 08:50:48;;;;;;;11.20;7.40;;;21.30;92.60;;;;;;5006165;28;20154;-95
2021/08/13 08:53:21;;;;;;;11.35;6.72;;;21.40;92.50;;;;;;5010353;28;20089;-92
2021/08/13 08:55:47;;;;;;;8.88;6.03;;;21.50;92.00;;;;;;5011481;28;20026;-93
2021/08/13 08:58:21;;;;;;;8.32;5.60;;;21.50;91.90;;;;;;5007778;28;20013;-93
2021/08/13 09:00:47;;;;;;;8.00;4.72;;;21.60;91.90;;;;;;5027861;28;20022;-92
2021/08/13 09:03:19;;;;;;;8.02;5.45;;;21.60;92.00;;;;;;5003002;28;20068;-90
2021/08/13 09:05:54;;;;;;;7.55;5.10;;;21.70;91.90;;;;;;5007683;28;20049;-94
2021/08/13 09:08:20;;;;;;;8.52;5.50;;;21.80;92.00;;;;;;5005808;28;20053;-93
2021/08/13 09:10:48;;;;;;;10.70;6.93;;;21.90;91.70;;;;;;5013167;28;20029;-93
2021/08/13 09:13:22;;;;;;;9.43;6.30;;;21.90;91.20;;;;;;5013227;28;20026;-91
2021/08/13 09:16:27;;;;;;;8.82;6.13;;;21.90;90.80;;;;;;5014418;28;20040;-93
2021/08/13 09:19:05;;;;;;;11.05;6.50;;;22.00;90.80;;;;;;5014417;28;20474;-94
2021/08/13 09:21:32;;;;;;;7.13;5.03;;;22.00;90.80;;;;;;5015996;28;20103;-93
2021/08/13 09:24:03;;;;;;;7.88;5.28;;;22.00;91.00;;;;;;5023771;28;20112;-92
2021/08/13 09:26:34;;;;;;;7.90;5.07;;;22.10;91.10;;;;;;5019015;28;20034;-91
2021/08/13 09:29:02;;;;;;;7.68;5.05;;;22.20;91.30;;;;;;5018260;28;20467;-92
2021/08/13 09:31:33;;;;;;;9.20;5.68;;;22.30;91.30;;;;;;5003363;28;20513;-92
2021/08/13 09:34:13;;;;;;;8.23;5.35;;;22.40;91.20;;;;;;5014911;28;20034;-93
2021/08/13 09:36:53;;;;;;;10.68;5.38;;;22.40;90.80;;;;;;5000016;28;20601;-93
2021/08/13 09:39:33;;;;;;;9.23;5.83;;;22.50;90.70;;;;;;5003337;28;20057;-92
2021/08/13 09:42:05;;;;;;;7.53;5.18;;;22.60;90.60;;;;;;5004295;28;20026;-88
2021/08/13 09:44:33;;;;;;;8.00;5.45;;;22.60;90.30;;;;;;5006299;28;20034;-89
2021/08/13 10:01:51;;;;;;;8.45;5.18;;;22.60;86.60;;;;;;4987558;28;20034;-91
2021/08/13 10:04:19;;;;;;;7.82;4.63;;;22.50;85.50;;;;;;4995423;28;20034;-89
2021/08/13 10:07:06;;;;;;;6.95;3.97;;;22.50;84.20;;;;;;4992032;28;20129;-90
2021/08/13 10:09:44;;;;;;;7.78;4.70;;;22.50;82.80;;;;;;5014272;28;20451;-89
2021/08/13 10:12:14;;;;;;;9.88;5.95;;;22.50;83.50;;;;;;5014099;28;20018;-90
2021/08/13 10:14:41;;;;;;;11.88;4.80;;;22.40;81.80;;;;;;5015222;28;20025;-89
2021/08/13 10:17:47;;;;;;;;;;;;;;;;;;;;;
2021/08/13 10:20:15;;;;;;;11.02;5.55;;;22.50;80.80;;;;;;5015522;28;20014;-87
2021/08/13 10:29:21;;;;;;;9.32;5.90;;;22.50;81.80;;;;;;4898936;29;20029;-85
2021/08/13 10:31:47;;;;;;;9.48;5.80;;;22.60;79.60;;;;;;4990849;28;20054;-84
2021/08/13 10:34:12;;;;;;;8.93;4.97;;;22.60;78.90;;;;;;5011308;28;20017;-85
2021/08/13 10:36:40;;;;;;;9.60;6.00;;;22.70;79.80;;;;;;5010148;28;20433;-88
2021/08/13 10:39:08;;;;;;;8.32;5.43;;;22.70;77.60;;;;;;5012081;28;20471;-88
2021/08/13 10:41:38;;;;;;;8.75;5.57;;;22.70;76.70;;;;;;5012836;28;20026;-87
2021/08/13 10:44:10;;;;;;;13.00;5.60;;;22.70;77.60;;;;;;5013898;28;20030;-87
2021/08/13 10:46:37;;;;;;;10.82;5.60;;;22.70;78.50;;;;;;5012050;28;20022;-87
2021/08/13 10:49:04;;;;;;;8.73;5.63;;;22.80;79.00;;;;;;4994419;28;20092;-86
2021/08/13 10:51:33;;;;;;;8.98;5.70;;;22.80;78.60;;;;;;5013636;28;20072;-87
2021/08/13 10:54:08;;;;;;;10.70;5.45;;;22.80;79.20;;;;;;5013433;28;20056;-88
2021/08/13 10:56:45;;;;;;;10.23;5.63;;;22.90;78.10;;;;;;5027413;28;20397;-88
2021/08/13 10:59:12;;;;;;;10.18;5.57;;;23.00;76.50;;;;;;5013553;28;20447;-87
2021/08/13 11:02:23;;;;;;;9.55;5.10;;;23.00;76.70;;;;;;5014277;28;20489;-87
2021/08/13 11:04:51;;;;;;;8.05;4.35;;;23.00;77.40;;;;;;5009645;28;20108;-87
2021/08/13 11:08:00;;;;;;;9.10;4.65;;;23.10;78.30;;;;;;5012292;28;20032;-88
2021/08/13 11:10:51;;;;;;;6.88;4.25;;;23.20;78.30;;;;;;5028678;28;20022;-88
2021/08/13 11:13:19;;;;;;;7.88;4.13;;;23.30;79.70;;;;;;5005402;28;20049;-86
2021/08/13 11:15:46;;;;;;;8.20;4.22;;;23.40;79.60;;;;;;5012425;28;20108;-86
2021/08/13 11:18:36;;;;;;;7.38;4.40;;;23.50;78.00;;;;;;5011593;28;20017;-86
2021/08/13 11:21:04;;;;;;;9.32;3.85;;;23.50;77.70;;;;;;5009675;28;20493;-88
2021/08/13 11:23:31;;;;;;;7.97;4.43;;;23.60;78.10;;;;;;5009347;28;20080;-87
2021/08/13 11:25:57;;;;;;;7.47;4.20;;;23.60;77.40;;;;;;5012181;28;20034;-90
2021/08/13 11:28:26;;;;;;;5.93;3.45;;;23.70;77.00;;;;;;4979705;28;20058;-88
2021/08/13 11:30:57;;;;;;;7.95;3.70;;;23.80;77.90;;;;;;5029110;28;20030;-89
2021/08/13 11:33:26;;;;;;;8.73;4.15;;;23.80;77.20;;;;;;5028556;28;20022;-87
2021/08/13 11:35:57;;;;;;;6.53;3.05;;;23.90;75.00;;;;;;5020919;28;20053;-87
2021/08/13 11:38:41;;;;;;;;;;;23.90;76.00;;;;;;5002269;28;20072;-88
2021/08/13 11:41:23;;;;;;;6.85;3.28;;;24.00;77.80;;;;;;5028334;28;20421;-87
2021/08/13 11:43:53;;;;;;;7.90;3.38;;;24.00;76.70;;;;;;5011594;28;20088;-87
2021/08/13 11:46:32;;;;;;;7.03;3.72;;;24.10;75.90;;;;;;5012101;28;20022;-87
2021/08/13 11:49:00;;;;;;;7.85;3.97;;;24.10;76.70;;;;;;5010080;28;20029;-88
2021/08/13 11:51:27;;;;;;;8.80;3.75;;;24.10;75.60;;;;;;5010613;28;20076;-89
2021/08/13 11:53:54;;;;;;;8.32;4.00;;;24.10;76.40;;;;;;5012509;28;20049;-88
2021/08/13 11:56:34;;;;;;;6.38;3.15;;;24.20;75.60;;;;;;5010273;28;20592;-90
2021/08/13 11:59:07;;;;;;;8.27;3.72;;;24.20;75.50;;;;;;5011923;28;20489;-87
2021/08/13 12:01:49;;;;;;;6.68;3.60;;;24.20;75.80;;;;;;5001201;28;20026;-89
2021/08/13 12:04:23;;;;;;;7.18;3.60;;;24.20;75.40;;;;;;5011844;28;20100;-88
2021/08/13 12:07:09;;;;;;;5.82;3.05;;;24.30;74.50;;;;;;5012401;28;20029;-88
2021/08/13 12:09:42;;;;;;;7.07;2.92;;;24.30;75.70;;;;;;5012125;28;20025;-88
2021/08/13 12:12:11;;;;;;;5.82;2.60;;;24.40;76.00;;;;;;4996357;28;20053;-88
2021/08/13 12:14:38;;;;;;;7.13;3.22;;;24.40;75.20;;;;;;5011932;28;20022;-87
2021/08/13 12:17:04;;;;;;;5.85;2.92;;;24.50;74.60;;;;;;5011463;28;20036;-88
2021/08/13 12:20:00;;;;;;;6.95;3.10;;;24.50;74.40;;;;;;4995577;28;20044;-88
2021/08/13 12:22:33;;;;;;;5.72;2.70;;;24.60;73.20;;;;;;4995060;28;20386;-86
2021/08/13 12:25:54;;;;;;;5.72;2.92;;;24.60;73.00;;;;;;5012714;28;20029;-85
2021/08/13 12:28:20;;;;;;;;;;;24.70;72.30;;;;;;4998478;28;20029;-86
2021/08/13 12:30:45;;;;;;;6.10;3.13;;;24.70;71.80;;;;;;5026958;28;19920;-87
2021/08/13 12:33:19;;;;;;;6.20;2.67;;;24.70;71.10;;;;;;4994848;28;20083;-86
2021/08/13 12:35:47;;;;;;;4.85;2.70;;;24.70;71.70;;;;;;5011451;28;20045;-86
2021/08/13 12:38:13;;;;;;;6.28;2.92;;;24.80;71.80;;;;;;5011412;28;20026;-86
2021/08/13 12:40:53;;;;;;;4.80;2.42;;;24.80;71.70;;;;;;5011697;28;20383;-86
2021/08/13 12:43:19;;;;;;;4.40;2.63;;;24.80;72.10;;;;;;5011691;28;20038;-87
2021/08/13 12:45:46;;;;;;;5.93;2.67;;;24.90;72.80;;;;;;4995333;28;20038;-86
2021/08/13 12:48:13;;;;;;;5.75;2.50;;;24.90;70.70;;;;;;4995407;28;20034;-86
2021/08/13 12:50:39;;;;;;;5.20;2.63;;;24.90;71.70;;;;;;4995149;28;20390;-86
2021/08/13 12:53:13;;;;;;;4.18;2.13;;;25.00;72.00;;;;;;4994536;28;20037;-87
2021/08/13 12:55:50;;;;;;;4.47;2.40;;;25.10;72.80;;;;;;5012235;28;20452;-86
2021/08/13 12:58:34;;;;;;;5.78;2.70;;;25.10;72.60;;;;;;4999604;28;20018;-87
2021/08/13 13:01:25;;;;;;;5.20;2.90;;;25.10;74.50;;;;;;5010565;28;20023;-86
2021/08/13 13:04:13;;;;;;;6.80;2.50;;;25.20;74.00;;;;;;5009289;28;20038;-86
2021/08/13 13:06:41;;;;;;;5.38;2.42;;;25.30;72.70;;;;;;5011044;28;20021;-87
2021/08/13 13:09:07;;;;;;;6.00;2.10;;;25.30;72.20;;;;;;5005338;28;20022;-87
2021/08/13 13:11:35;;;;;;;6.00;2.25;;;25.30;71.40;;;;;;5009008;28;20038;-86
2021/08/13 13:14:04;;;;;;;5.85;2.50;;;25.30;69.90;;;;;;5008257;28;20022;-87
2021/08/13 13:16:30;;;;;;;5.55;2.33;;;25.30;70.20;;;;;;5003870;28;20781;-86